sensor_id;sensor_type;location;lat;lon;timestamp;pressure;altitude;pressure_sealevel;temperature
60966;BMP180;46834;51.100;6.886;2023-03-19T00:02:19;100712.00;;;16.10
60966;BMP180;46834;51.100;6.886;2023-03-19T00:04:46;100715.00;;;16.10
60966;BMP180;46834;51.100;6.886;2023-03-19T00:07:13;100724.00;;;16.10
60966;BMP180;46834;51.100;6.886;2023-03-19T00:09:40;100719.00;;;16.10
60966;BMP180;46834;51.100;6.886;2023-03-19T00:12:07;100708.00;;;16.10
60966;BMP180;46834;51.100;6.886;2023-03-19T00:14:33;100717.00;;;16.10
60966;BMP180;46834;51.100;6.886;2023-03-19T00:16:59;100713.00;;;16.10
60966;BMP180;46834;51.100;6.886;2023-03-19T00:19:26;100713.00;;;16.10
60966;BMP180;46834;51.100;6.886;2023-03-19T00:21:51;100698.00;;;16.10
60966;BMP180;46834;51.100;6.886;2023-03-19T00:24:17;100712.00;;;16.10
60966;BMP180;46834;51.100;6.886;2023-03-19T00:26:43;100721.00;;;16.10
60966;BMP180;46834;51.100;6.886;2023-03-19T00:29:09;100728.00;;;16.10
60966;BMP180;46834;51.100;6.886;2023-03-19T00:31:35;100721.00;;;16.10
60966;BMP180;46834;51.100;6.886;2023-03-19T00:34:01;100718.00;;;16.00
60966;BMP180;46834;51.100;6.886;2023-03-19T00:36:28;100721.00;;;16.00
60966;BMP180;46834;51.100;6.886;2023-03-19T00:38:54;100722.00;;;16.00
60966;BMP180;46834;51.100;6.886;2023-03-19T00:41:20;100717.00;;;16.00
60966;BMP180;46834;51.100;6.886;2023-03-19T00:43:51;100719.00;;;15.90
60966;BMP180;46834;51.100;6.886;2023-03-19T00:46:17;100714.00;;;15.90
60966;BMP180;46834;51.100;6.886;2023-03-19T00:48:43;100711.00;;;15.90
60966;BMP180;46834;51.100;6.886;2023-03-19T00:51:09;100718.00;;;15.90
60966;BMP180;46834;51.100;6.886;2023-03-19T00:53:41;100714.00;;;15.90
60966;BMP180;46834;51.100;6.886;2023-03-19T00:56:11;100711.00;;;15.80
60966;BMP180;46834;51.100;6.886;2023-03-19T00:58:38;100716.00;;;15.80
60966;BMP180;46834;51.100;6.886;2023-03-19T01:01:09;100720.00;;;15.80
60966;BMP180;46834;51.100;6.886;2023-03-19T01:03:36;100722.00;;;15.80
60966;BMP180;46834;51.100;6.886;2023-03-19T01:06:02;100722.00;;;15.80
60966;BMP180;46834;51.100;6.886;2023-03-19T01:08:29;100721.00;;;15.70
60966;BMP180;46834;51.100;6.886;2023-03-19T01:10:55;100701.00;;;15.70
60966;BMP180;46834;51.100;6.886;2023-03-19T01:13:21;100680.00;;;15.60
60966;BMP180;46834;51.100;6.886;2023-03-19T01:15:51;100713.00;;;15.50
60966;BMP180;46834;51.100;6.886;2023-03-19T01:18:18;100706.00;;;15.50
60966;BMP180;46834;51.100;6.886;2023-03-19T01:20:43;100705.00;;;15.50
60966;BMP180;46834;51.100;6.886;2023-03-19T01:23:09;100707.00;;;15.40
60966;BMP180;46834;51.100;6.886;2023-03-19T01:25:35;100711.00;;;15.40
60966;BMP180;46834;51.100;6.886;2023-03-19T01:28:01;100711.00;;;15.40
60966;BMP180;46834;51.100;6.886;2023-03-19T01:30:27;100704.00;;;15.30
60966;BMP180;46834;51.100;6.886;2023-03-19T01:32:53;100701.00;;;15.30
60966;BMP180;46834;51.100;6.886;2023-03-19T01:35:18;100696.00;;;15.20
60966;BMP180;46834;51.100;6.886;2023-03-19T01:37:45;100699.00;;;15.20
60966;BMP180;46834;51.100;6.886;2023-03-19T01:40:13;100699.00;;;15.10
60966;BMP180;46834;51.100;6.886;2023-03-19T01:43:11;100695.00;;;15.00
60966;BMP180;46834;51.100;6.886;2023-03-19T01:45:41;100693.00;;;15.00
60966;BMP180;46834;51.100;6.886;2023-03-19T01:50:48;100697.00;;;14.90
60966;BMP180;46834;51.100;6.886;2023-03-19T01:53:22;100683.00;;;14.80
60966;BMP180;46834;51.100;6.886;2023-03-19T01:55:51;100682.00;;;14.80
60966;BMP180;46834;51.100;6.886;2023-03-19T01:58:20;100690.00;;;14.80
60966;BMP180;46834;51.100;6.886;2023-03-19T02:00:46;100687.00;;;14.70
60966;BMP180;46834;51.100;6.886;2023-03-19T02:03:12;100681.00;;;14.70
60966;BMP180;46834;51.100;6.886;2023-03-19T02:05:40;100690.00;;;14.70
60966;BMP180;46834;51.100;6.886;2023-03-19T02:08:10;100688.00;;;14.70
60966;BMP180;46834;51.100;6.886;2023-03-19T02:10:38;100681.00;;;14.70
60966;BMP180;46834;51.100;6.886;2023-03-19T02:13:04;100685.00;;;14.70
60966;BMP180;46834;51.100;6.886;2023-03-19T02:15:31;100696.00;;;14.80
60966;BMP180;46834;51.100;6.886;2023-03-19T02:17:57;100683.00;;;14.80
60966;BMP180;46834;51.100;6.886;2023-03-19T02:20:32;100691.00;;;14.80
60966;BMP180;46834;51.100;6.886;2023-03-19T02:26:08;100697.00;;;14.70
60966;BMP180;46834;51.100;6.886;2023-03-19T02:28:39;100676.00;;;14.80
60966;BMP180;46834;51.100;6.886;2023-03-19T02:31:07;100687.00;;;14.80
60966;BMP180;46834;51.100;6.886;2023-03-19T02:33:33;100673.00;;;14.90
60966;BMP180;46834;51.100;6.886;2023-03-19T02:36:03;100684.00;;;14.90
60966;BMP180;46834;51.100;6.886;2023-03-19T02:38:33;100681.00;;;14.90
60966;BMP180;46834;51.100;6.886;2023-03-19T02:41:05;100696.00;;;14.80
60966;BMP180;46834;51.100;6.886;2023-03-19T02:43:35;100688.00;;;14.90
60966;BMP180;46834;51.100;6.886;2023-03-19T02:46:04;100674.00;;;14.90
60966;BMP180;46834;51.100;6.886;2023-03-19T02:48:30;100686.00;;;14.90
60966;BMP180;46834;51.100;6.886;2023-03-19T02:50:57;100699.00;;;14.90
60966;BMP180;46834;51.100;6.886;2023-03-19T02:53:24;100693.00;;;14.90
60966;BMP180;46834;51.100;6.886;2023-03-19T02:55:50;100697.00;;;14.90
60966;BMP180;46834;51.100;6.886;2023-03-19T02:58:15;100704.00;;;14.90
60966;BMP180;46834;51.100;6.886;2023-03-19T03:00:42;100688.00;;;14.90
60966;BMP180;46834;51.100;6.886;2023-03-19T03:03:08;100698.00;;;14.90
60966;BMP180;46834;51.100;6.886;2023-03-19T03:05:34;100704.00;;;14.90
60966;BMP180;46834;51.100;6.886;2023-03-19T03:08:00;100705.00;;;15.00
60966;BMP180;46834;51.100;6.886;2023-03-19T03:10:26;100704.00;;;14.90
60966;BMP180;46834;51.100;6.886;2023-03-19T03:12:52;100701.00;;;14.90
60966;BMP180;46834;51.100;6.886;2023-03-19T03:15:18;100688.00;;;14.90
60966;BMP180;46834;51.100;6.886;2023-03-19T03:17:44;100697.00;;;14.90
60966;BMP180;46834;51.100;6.886;2023-03-19T03:20:13;100698.00;;;14.90
60966;BMP180;46834;51.100;6.886;2023-03-19T03:22:40;100705.00;;;14.90
60966;BMP180;46834;51.100;6.886;2023-03-19T03:25:06;100699.00;;;14.90
60966;BMP180;46834;51.100;6.886;2023-03-19T03:27:34;100697.00;;;14.90
60966;BMP180;46834;51.100;6.886;2023-03-19T03:29:59;100705.00;;;14.90
60966;BMP180;46834;51.100;6.886;2023-03-19T03:32:25;100706.00;;;14.90
60966;BMP180;46834;51.100;6.886;2023-03-19T03:34:51;100696.00;;;14.90
60966;BMP180;46834;51.100;6.886;2023-03-19T03:37:16;100710.00;;;14.90
60966;BMP180;46834;51.100;6.886;2023-03-19T03:39:43;100711.00;;;14.90
60966;BMP180;46834;51.100;6.886;2023-03-19T03:42:09;100715.00;;;14.90
60966;BMP180;46834;51.100;6.886;2023-03-19T03:44:35;100713.00;;;14.90
60966;BMP180;46834;51.100;6.886;2023-03-19T03:47:03;100713.00;;;14.90
60966;BMP180;46834;51.100;6.886;2023-03-19T03:49:29;100710.00;;;14.90
60966;BMP180;46834;51.100;6.886;2023-03-19T03:51:55;100711.00;;;14.90
60966;BMP180;46834;51.100;6.886;2023-03-19T03:54:22;100712.00;;;14.90
60966;BMP180;46834;51.100;6.886;2023-03-19T03:56:47;100725.00;;;14.80
60966;BMP180;46834;51.100;6.886;2023-03-19T03:59:15;100715.00;;;14.80
60966;BMP180;46834;51.100;6.886;2023-03-19T04:01:40;100723.00;;;14.80
60966;BMP180;46834;51.100;6.886;2023-03-19T04:04:06;100721.00;;;14.80
60966;BMP180;46834;51.100;6.886;2023-03-19T04:06:32;100726.00;;;14.80
60966;BMP180;46834;51.100;6.886;2023-03-19T04:08:58;100732.00;;;14.80
60966;BMP180;46834;51.100;6.886;2023-03-19T04:11:23;100724.00;;;14.80
60966;BMP180;46834;51.100;6.886;2023-03-19T04:13:49;100723.00;;;14.80
60966;BMP180;46834;51.100;6.886;2023-03-19T04:16:15;100723.00;;;14.80
60966;BMP180;46834;51.100;6.886;2023-03-19T04:18:41;100716.00;;;14.80
60966;BMP180;46834;51.100;6.886;2023-03-19T04:21:06;100710.00;;;14.80
60966;BMP180;46834;51.100;6.886;2023-03-19T04:23:33;100727.00;;;14.80
60966;BMP180;46834;51.100;6.886;2023-03-19T04:26:01;100720.00;;;14.80
60966;BMP180;46834;51.100;6.886;2023-03-19T04:28:28;100728.00;;;14.80
60966;BMP180;46834;51.100;6.886;2023-03-19T04:31:07;100739.00;;;14.70
60966;BMP180;46834;51.100;6.886;2023-03-19T04:33:35;100737.00;;;14.80
60966;BMP180;46834;51.100;6.886;2023-03-19T04:36:01;100738.00;;;14.80
60966;BMP180;46834;51.100;6.886;2023-03-19T04:38:28;100730.00;;;14.80
60966;BMP180;46834;51.100;6.886;2023-03-19T04:40:56;100731.00;;;14.80
60966;BMP180;46834;51.100;6.886;2023-03-19T04:43:23;100738.00;;;14.80
60966;BMP180;46834;51.100;6.886;2023-03-19T04:45:50;100731.00;;;14.80
60966;BMP180;46834;51.100;6.886;2023-03-19T04:48:16;100740.00;;;14.80
60966;BMP180;46834;51.100;6.886;2023-03-19T04:50:44;100742.00;;;14.80
60966;BMP180;46834;51.100;6.886;2023-03-19T04:53:10;100742.00;;;14.80
60966;BMP180;46834;51.100;6.886;2023-03-19T04:55:36;100751.00;;;14.80
60966;BMP180;46834;51.100;6.886;2023-03-19T04:58:03;100761.00;;;14.80
60966;BMP180;46834;51.100;6.886;2023-03-19T05:00:28;100756.00;;;14.80
60966;BMP180;46834;51.100;6.886;2023-03-19T05:02:56;100758.00;;;14.80
60966;BMP180;46834;51.100;6.886;2023-03-19T05:05:21;100764.00;;;14.80
60966;BMP180;46834;51.100;6.886;2023-03-19T05:07:47;100762.00;;;14.80
60966;BMP180;46834;51.100;6.886;2023-03-19T05:10:13;100754.00;;;14.80
60966;BMP180;46834;51.100;6.886;2023-03-19T05:12:38;100758.00;;;14.80
60966;BMP180;46834;51.100;6.886;2023-03-19T05:15:05;100763.00;;;14.70
60966;BMP180;46834;51.100;6.886;2023-03-19T05:17:31;100760.00;;;14.80
60966;BMP180;46834;51.100;6.886;2023-03-19T05:19:57;100757.00;;;14.70
60966;BMP180;46834;51.100;6.886;2023-03-19T05:22:23;100760.00;;;14.70
60966;BMP180;46834;51.100;6.886;2023-03-19T05:24:48;100754.00;;;14.70
60966;BMP180;46834;51.100;6.886;2023-03-19T05:27:15;100767.00;;;14.70
60966;BMP180;46834;51.100;6.886;2023-03-19T05:29:41;100765.00;;;14.70
60966;BMP180;46834;51.100;6.886;2023-03-19T05:32:07;100763.00;;;14.80
60966;BMP180;46834;51.100;6.886;2023-03-19T05:34:35;100763.00;;;14.80
60966;BMP180;46834;51.100;6.886;2023-03-19T05:37:01;100764.00;;;14.80
60966;BMP180;46834;51.100;6.886;2023-03-19T05:39:26;100775.00;;;14.80
60966;BMP180;46834;51.100;6.886;2023-03-19T05:41:52;100771.00;;;14.80
60966;BMP180;46834;51.100;6.886;2023-03-19T05:44:18;100776.00;;;14.80
60966;BMP180;46834;51.100;6.886;2023-03-19T05:46:44;100776.00;;;14.80
60966;BMP180;46834;51.100;6.886;2023-03-19T05:49:10;100783.00;;;14.80
60966;BMP180;46834;51.100;6.886;2023-03-19T05:51:36;100778.00;;;14.80
60966;BMP180;46834;51.100;6.886;2023-03-19T05:54:02;100780.00;;;14.80
60966;BMP180;46834;51.100;6.886;2023-03-19T05:56:28;100789.00;;;14.80
60966;BMP180;46834;51.100;6.886;2023-03-19T05:58:54;100797.00;;;14.80
60966;BMP180;46834;51.100;6.886;2023-03-19T06:01:20;100798.00;;;14.80
60966;BMP180;46834;51.100;6.886;2023-03-19T06:03:46;100793.00;;;14.80
60966;BMP180;46834;51.100;6.886;2023-03-19T06:06:12;100791.00;;;14.80
60966;BMP180;46834;51.100;6.886;2023-03-19T06:08:38;100794.00;;;14.90
60966;BMP180;46834;51.100;6.886;2023-03-19T06:11:04;100797.00;;;14.90
60966;BMP180;46834;51.100;6.886;2023-03-19T06:13:30;100808.00;;;14.90
60966;BMP180;46834;51.100;6.886;2023-03-19T06:15:55;100806.00;;;14.90
60966;BMP180;46834;51.100;6.886;2023-03-19T06:18:21;100806.00;;;14.90
60966;BMP180;46834;51.100;6.886;2023-03-19T06:20:47;100816.00;;;14.90
60966;BMP180;46834;51.100;6.886;2023-03-19T06:23:13;100826.00;;;14.90
60966;BMP180;46834;51.100;6.886;2023-03-19T06:25:39;100823.00;;;14.90
60966;BMP180;46834;51.100;6.886;2023-03-19T06:28:05;100825.00;;;14.90
60966;BMP180;46834;51.100;6.886;2023-03-19T06:30:32;100823.00;;;14.90
60966;BMP180;46834;51.100;6.886;2023-03-19T06:32:58;100815.00;;;14.90
60966;BMP180;46834;51.100;6.886;2023-03-19T06:35:24;100825.00;;;14.90
60966;BMP180;46834;51.100;6.886;2023-03-19T06:37:50;100813.00;;;14.90
60966;BMP180;46834;51.100;6.886;2023-03-19T06:40:18;100819.00;;;14.90
60966;BMP180;46834;51.100;6.886;2023-03-19T06:42:45;100824.00;;;14.90
60966;BMP180;46834;51.100;6.886;2023-03-19T06:45:12;100825.00;;;15.00
60966;BMP180;46834;51.100;6.886;2023-03-19T06:47:42;100817.00;;;15.00
60966;BMP180;46834;51.100;6.886;2023-03-19T06:50:10;100819.00;;;15.00
60966;BMP180;46834;51.100;6.886;2023-03-19T06:52:35;100821.00;;;15.00
60966;BMP180;46834;51.100;6.886;2023-03-19T06:55:01;100819.00;;;15.00
60966;BMP180;46834;51.100;6.886;2023-03-19T06:57:27;100836.00;;;15.00
60966;BMP180;46834;51.100;6.886;2023-03-19T06:59:55;100827.00;;;15.00
60966;BMP180;46834;51.100;6.886;2023-03-19T07:02:21;100818.00;;;15.00
60966;BMP180;46834;51.100;6.886;2023-03-19T07:04:47;100825.00;;;15.00
60966;BMP180;46834;51.100;6.886;2023-03-19T07:07:13;100834.00;;;15.00
60966;BMP180;46834;51.100;6.886;2023-03-19T07:09:39;100838.00;;;15.00
60966;BMP180;46834;51.100;6.886;2023-03-19T07:12:05;100846.00;;;15.00
60966;BMP180;46834;51.100;6.886;2023-03-19T07:14:31;100844.00;;;15.10
60966;BMP180;46834;51.100;6.886;2023-03-19T07:16:57;100844.00;;;15.10
60966;BMP180;46834;51.100;6.886;2023-03-19T07:19:22;100851.00;;;15.10
60966;BMP180;46834;51.100;6.886;2023-03-19T07:21:48;100849.00;;;15.10
60966;BMP180;46834;51.100;6.886;2023-03-19T07:24:14;100856.00;;;15.10
60966;BMP180;46834;51.100;6.886;2023-03-19T07:26:42;100863.00;;;15.10
60966;BMP180;46834;51.100;6.886;2023-03-19T07:29:09;100860.00;;;15.10
60966;BMP180;46834;51.100;6.886;2023-03-19T07:31:35;100866.00;;;15.10
60966;BMP180;46834;51.100;6.886;2023-03-19T07:34:01;100872.00;;;15.10
60966;BMP180;46834;51.100;6.886;2023-03-19T07:36:27;100873.00;;;15.10
60966;BMP180;46834;51.100;6.886;2023-03-19T07:38:52;100875.00;;;15.10
60966;BMP180;46834;51.100;6.886;2023-03-19T07:41:18;100874.00;;;15.10
60966;BMP180;46834;51.100;6.886;2023-03-19T07:43:44;100875.00;;;15.10
60966;BMP180;46834;51.100;6.886;2023-03-19T07:46:09;100873.00;;;15.20
60966;BMP180;46834;51.100;6.886;2023-03-19T07:48:36;100881.00;;;15.20
60966;BMP180;46834;51.100;6.886;2023-03-19T07:51:02;100879.00;;;15.20
60966;BMP180;46834;51.100;6.886;2023-03-19T07:53:27;100858.00;;;15.20
60966;BMP180;46834;51.100;6.886;2023-03-19T07:55:53;100876.00;;;15.20
60966;BMP180;46834;51.100;6.886;2023-03-19T07:58:19;100878.00;;;15.20
60966;BMP180;46834;51.100;6.886;2023-03-19T08:00:45;100879.00;;;15.20
60966;BMP180;46834;51.100;6.886;2023-03-19T08:03:11;100874.00;;;15.20
60966;BMP180;46834;51.100;6.886;2023-03-19T08:05:37;100879.00;;;15.30
60966;BMP180;46834;51.100;6.886;2023-03-19T08:08:04;100885.00;;;15.30
60966;BMP180;46834;51.100;6.886;2023-03-19T08:10:29;100884.00;;;15.30
60966;BMP180;46834;51.100;6.886;2023-03-19T08:12:55;100871.00;;;15.30
60966;BMP180;46834;51.100;6.886;2023-03-19T08:15:21;100877.00;;;15.30
60966;BMP180;46834;51.100;6.886;2023-03-19T08:17:47;100881.00;;;15.40
60966;BMP180;46834;51.100;6.886;2023-03-19T08:20:15;100878.00;;;15.40
60966;BMP180;46834;51.100;6.886;2023-03-19T08:22:41;100884.00;;;15.50
60966;BMP180;46834;51.100;6.886;2023-03-19T08:25:09;100888.00;;;15.50
60966;BMP180;46834;51.100;6.886;2023-03-19T08:27:35;100888.00;;;15.50
60966;BMP180;46834;51.100;6.886;2023-03-19T08:30:04;100897.00;;;15.50
60966;BMP180;46834;51.100;6.886;2023-03-19T08:32:30;100901.00;;;15.60
60966;BMP180;46834;51.100;6.886;2023-03-19T08:34:56;100905.00;;;15.60
60966;BMP180;46834;51.100;6.886;2023-03-19T08:37:22;100904.00;;;15.60
60966;BMP180;46834;51.100;6.886;2023-03-19T08:39:51;100905.00;;;15.60
60966;BMP180;46834;51.100;6.886;2023-03-19T08:42:20;100907.00;;;15.70
60966;BMP180;46834;51.100;6.886;2023-03-19T08:44:47;100912.00;;;15.70
60966;BMP180;46834;51.100;6.886;2023-03-19T08:47:13;100903.00;;;15.70
60966;BMP180;46834;51.100;6.886;2023-03-19T08:49:38;100912.00;;;15.80
60966;BMP180;46834;51.100;6.886;2023-03-19T08:52:05;100890.00;;;15.80
60966;BMP180;46834;51.100;6.886;2023-03-19T08:54:31;100909.00;;;15.80
60966;BMP180;46834;51.100;6.886;2023-03-19T08:56:59;100910.00;;;15.90
60966;BMP180;46834;51.100;6.886;2023-03-19T08:59:26;100907.00;;;16.00
60966;BMP180;46834;51.100;6.886;2023-03-19T09:01:53;100911.00;;;16.00
60966;BMP180;46834;51.100;6.886;2023-03-19T09:04:20;100900.00;;;16.10
60966;BMP180;46834;51.100;6.886;2023-03-19T09:06:47;100913.00;;;16.10
60966;BMP180;46834;51.100;6.886;2023-03-19T09:09:20;100918.00;;;16.20
60966;BMP180;46834;51.100;6.886;2023-03-19T09:11:47;100918.00;;;16.30
60966;BMP180;46834;51.100;6.886;2023-03-19T09:14:14;100917.00;;;16.30
60966;BMP180;46834;51.100;6.886;2023-03-19T09:16:42;100922.00;;;16.40
60966;BMP180;46834;51.100;6.886;2023-03-19T09:19:08;100918.00;;;16.40
60966;BMP180;46834;51.100;6.886;2023-03-19T09:21:35;100926.00;;;16.50
60966;BMP180;46834;51.100;6.886;2023-03-19T09:24:02;100927.00;;;16.50
60966;BMP180;46834;51.100;6.886;2023-03-19T09:26:28;100932.00;;;16.60
60966;BMP180;46834;51.100;6.886;2023-03-19T09:28:53;100910.00;;;16.60
60966;BMP180;46834;51.100;6.886;2023-03-19T09:31:19;100930.00;;;16.70
60966;BMP180;46834;51.100;6.886;2023-03-19T09:33:45;100936.00;;;16.80
60966;BMP180;46834;51.100;6.886;2023-03-19T09:36:10;100933.00;;;16.80
60966;BMP180;46834;51.100;6.886;2023-03-19T09:38:36;100932.00;;;16.80
60966;BMP180;46834;51.100;6.886;2023-03-19T09:41:08;100938.00;;;16.80
60966;BMP180;46834;51.100;6.886;2023-03-19T09:43:50;100937.00;;;16.80
60966;BMP180;46834;51.100;6.886;2023-03-19T09:46:31;100940.00;;;16.90
60966;BMP180;46834;51.100;6.886;2023-03-19T09:49:16;100935.00;;;16.90
60966;BMP180;46834;51.100;6.886;2023-03-19T09:51:51;100935.00;;;16.90
60966;BMP180;46834;51.100;6.886;2023-03-19T09:54:41;100940.00;;;16.90
60966;BMP180;46834;51.100;6.886;2023-03-19T09:57:09;100942.00;;;17.00
60966;BMP180;46834;51.100;6.886;2023-03-19T09:59:37;100954.00;;;17.10
60966;BMP180;46834;51.100;6.886;2023-03-19T10:02:39;100944.00;;;17.00
60966;BMP180;46834;51.100;6.886;2023-03-19T10:05:31;100937.00;;;17.10
60966;BMP180;46834;51.100;6.886;2023-03-19T10:11:31;100952.00;;;17.10
60966;BMP180;46834;51.100;6.886;2023-03-19T10:16:38;100944.00;;;17.20
60966;BMP180;46834;51.100;6.886;2023-03-19T10:19:12;100947.00;;;17.20
60966;BMP180;46834;51.100;6.886;2023-03-19T10:24:39;100952.00;;;17.20
60966;BMP180;46834;51.100;6.886;2023-03-19T10:27:17;100956.00;;;17.20
60966;BMP180;46834;51.100;6.886;2023-03-19T10:29:43;100960.00;;;17.30
60966;BMP180;46834;51.100;6.886;2023-03-19T10:32:27;100958.00;;;17.20
60966;BMP180;46834;51.100;6.886;2023-03-19T10:34:58;100964.00;;;17.20
60966;BMP180;46834;51.100;6.886;2023-03-19T10:37:28;100957.00;;;17.20
60966;BMP180;46834;51.100;6.886;2023-03-19T10:39:59;100960.00;;;17.20
60966;BMP180;46834;51.100;6.886;2023-03-19T10:43:17;100971.00;;;17.10
60966;BMP180;46834;51.100;6.886;2023-03-19T10:45:44;100959.00;;;17.20
60966;BMP180;46834;51.100;6.886;2023-03-19T10:48:18;100973.00;;;17.10
60966;BMP180;46834;51.100;6.886;2023-03-19T10:50:56;100977.00;;;17.10
60966;BMP180;46834;51.100;6.886;2023-03-19T10:53:37;100964.00;;;17.10
60966;BMP180;46834;51.100;6.886;2023-03-19T10:56:06;100964.00;;;17.10
60966;BMP180;46834;51.100;6.886;2023-03-19T10:58:40;100970.00;;;17.10
60966;BMP180;46834;51.100;6.886;2023-03-19T11:01:11;100969.00;;;17.10
60966;BMP180;46834;51.100;6.886;2023-03-19T11:03:51;100972.00;;;17.10
60966;BMP180;46834;51.100;6.886;2023-03-19T11:06:27;100968.00;;;17.10
60966;BMP180;46834;51.100;6.886;2023-03-19T11:11:50;100968.00;;;17.10
60966;BMP180;46834;51.100;6.886;2023-03-19T11:14:38;100971.00;;;17.20
60966;BMP180;46834;51.100;6.886;2023-03-19T11:17:19;100973.00;;;17.20
60966;BMP180;46834;51.100;6.886;2023-03-19T11:19:57;100978.00;;;17.20
60966;BMP180;46834;51.100;6.886;2023-03-19T11:22:32;100979.00;;;17.30
60966;BMP180;46834;51.100;6.886;2023-03-19T11:28:02;100973.00;;;17.30
60966;BMP180;46834;51.100;6.886;2023-03-19T11:31:33;100971.00;;;17.30
60966;BMP180;46834;51.100;6.886;2023-03-19T11:34:25;100977.00;;;17.30
60966;BMP180;46834;51.100;6.886;2023-03-19T11:40:19;100992.00;;;17.30
60966;BMP180;46834;51.100;6.886;2023-03-19T11:42:55;100980.00;;;17.30
60966;BMP180;46834;51.100;6.886;2023-03-19T11:51:51;100981.00;;;17.30
60966;BMP180;46834;51.100;6.886;2023-03-19T11:57:46;100975.00;;;17.30
60966;BMP180;46834;51.100;6.886;2023-03-19T12:00:41;100966.00;;;17.20
60966;BMP180;46834;51.100;6.886;2023-03-19T12:05:59;100980.00;;;17.20
60966;BMP180;46834;51.100;6.886;2023-03-19T12:08:58;100971.00;;;17.10
60966;BMP180;46834;51.100;6.886;2023-03-19T12:11:52;100988.00;;;17.10
60966;BMP180;46834;51.100;6.886;2023-03-19T12:14:52;100962.00;;;17.00
60966;BMP180;46834;51.100;6.886;2023-03-19T12:21:02;100971.00;;;17.00
60966;BMP180;46834;51.100;6.886;2023-03-19T12:29:23;100968.00;;;17.10
60966;BMP180;46834;51.100;6.886;2023-03-19T12:35:02;100982.00;;;17.20
60966;BMP180;46834;51.100;6.886;2023-03-19T12:37:37;100979.00;;;17.30
60966;BMP180;46834;51.100;6.886;2023-03-19T12:40:46;100977.00;;;17.30
60966;BMP180;46834;51.100;6.886;2023-03-19T12:43:46;100971.00;;;17.30
60966;BMP180;46834;51.100;6.886;2023-03-19T12:46:30;100978.00;;;17.30
60966;BMP180;46834;51.100;6.886;2023-03-19T12:49:28;100978.00;;;17.40
60966;BMP180;46834;51.100;6.886;2023-03-19T12:52:20;100972.00;;;17.40
60966;BMP180;46834;51.100;6.886;2023-03-19T12:55:20;100972.00;;;17.40
60966;BMP180;46834;51.100;6.886;2023-03-19T13:00:58;100984.00;;;17.50
60966;BMP180;46834;51.100;6.886;2023-03-19T13:03:54;100977.00;;;17.50
60966;BMP180;46834;51.100;6.886;2023-03-19T13:06:35;100975.00;;;17.60
60966;BMP180;46834;51.100;6.886;2023-03-19T13:09:34;100987.00;;;17.70
60966;BMP180;46834;51.100;6.886;2023-03-19T13:12:17;100981.00;;;17.70
60966;BMP180;46834;51.100;6.886;2023-03-19T13:14:54;100978.00;;;17.80
60966;BMP180;46834;51.100;6.886;2023-03-19T13:21:32;100985.00;;;17.80
60966;BMP180;46834;51.100;6.886;2023-03-19T13:26:54;100975.00;;;17.90
60966;BMP180;46834;51.100;6.886;2023-03-19T13:29:28;100977.00;;;17.90
60966;BMP180;46834;51.100;6.886;2023-03-19T13:32:22;100968.00;;;17.80
60966;BMP180;46834;51.100;6.886;2023-03-19T13:34:48;100983.00;;;17.90
60966;BMP180;46834;51.100;6.886;2023-03-19T13:37:17;100975.00;;;17.90
60966;BMP180;46834;51.100;6.886;2023-03-19T13:39:46;100974.00;;;18.00
60966;BMP180;46834;51.100;6.886;2023-03-19T13:45:01;100981.00;;;18.00
60966;BMP180;46834;51.100;6.886;2023-03-19T13:58:15;100960.00;;;18.20
60966;BMP180;46834;51.100;6.886;2023-03-19T14:01:05;100972.00;;;18.20
60966;BMP180;46834;51.100;6.886;2023-03-19T14:03:34;100960.00;;;18.30
60966;BMP180;46834;51.100;6.886;2023-03-19T14:06:02;100966.00;;;18.30
60966;BMP180;46834;51.100;6.886;2023-03-19T14:08:51;100969.00;;;18.30
60966;BMP180;46834;51.100;6.886;2023-03-19T14:11:23;100960.00;;;18.30
60966;BMP180;46834;51.100;6.886;2023-03-19T14:13:51;100974.00;;;18.40
60966;BMP180;46834;51.100;6.886;2023-03-19T14:16:44;100978.00;;;18.30
60966;BMP180;46834;51.100;6.886;2023-03-19T14:19:16;100974.00;;;18.40
60966;BMP180;46834;51.100;6.886;2023-03-19T14:22:08;100965.00;;;18.30
60966;BMP180;46834;51.100;6.886;2023-03-19T14:24:38;100973.00;;;18.40
60966;BMP180;46834;51.100;6.886;2023-03-19T14:27:45;100967.00;;;18.30
60966;BMP180;46834;51.100;6.886;2023-03-19T14:30:44;100973.00;;;18.30
60966;BMP180;46834;51.100;6.886;2023-03-19T14:33:54;100972.00;;;18.20
60966;BMP180;46834;51.100;6.886;2023-03-19T14:36:22;100976.00;;;18.30
60966;BMP180;46834;51.100;6.886;2023-03-19T14:38:57;100980.00;;;18.30
60966;BMP180;46834;51.100;6.886;2023-03-19T14:41:27;100991.00;;;18.30
60966;BMP180;46834;51.100;6.886;2023-03-19T14:50:24;100989.00;;;18.20
60966;BMP180;46834;51.100;6.886;2023-03-19T14:53:33;100993.00;;;18.20
60966;BMP180;46834;51.100;6.886;2023-03-19T14:56:14;100989.00;;;18.30
60966;BMP180;46834;51.100;6.886;2023-03-19T14:58:53;100992.00;;;18.30
60966;BMP180;46834;51.100;6.886;2023-03-19T15:01:20;100989.00;;;18.40
60966;BMP180;46834;51.100;6.886;2023-03-19T15:04:05;100992.00;;;18.30
60966;BMP180;46834;51.100;6.886;2023-03-19T15:06:51;100994.00;;;18.30
60966;BMP180;46834;51.100;6.886;2023-03-19T15:09:27;100996.00;;;18.30
60966;BMP180;46834;51.100;6.886;2023-03-19T15:15:48;101003.00;;;18.20
60966;BMP180;46834;51.100;6.886;2023-03-19T15:18:17;101006.00;;;18.30
60966;BMP180;46834;51.100;6.886;2023-03-19T15:20:49;101012.00;;;18.20
60966;BMP180;46834;51.100;6.886;2023-03-19T15:23:21;101018.00;;;18.20
60966;BMP180;46834;51.100;6.886;2023-03-19T15:25:56;101019.00;;;18.20
60966;BMP180;46834;51.100;6.886;2023-03-19T15:28:25;101014.00;;;18.20
60966;BMP180;46834;51.100;6.886;2023-03-19T15:31:03;101016.00;;;18.20
60966;BMP180;46834;51.100;6.886;2023-03-19T15:33:38;101022.00;;;18.10
60966;BMP180;46834;51.100;6.886;2023-03-19T15:36:14;101016.00;;;18.10
60966;BMP180;46834;51.100;6.886;2023-03-19T15:41:17;100994.00;;;18.10
60966;BMP180;46834;51.100;6.886;2023-03-19T15:43:44;100998.00;;;18.00